Celebrity Mercury — 9HJG9 — position and weather

sailwx.info

Track history (hours):
 
Tides and Currents Weather Stations Pressure Air Temp Water Temp Dewpoint Dewpoint Depression Visibility Wind Speed Wind Dir Waves Ship Positions

Celebrity Mercury

Last reported at 2017-Aug-16 23:16 UTC. Time now 2017-Aug-17 03:38 UTC.
Position N 41°24' E 018°52'.

Length 264 m; draft 8.5 m.

Type: Ship. MMSI: 249053000.

Date/timePositionNaut miles runAvg speedWind from/ knotsBaromVisibWave heightAir tempDewpointWater temp
2017-Aug-16 23:16N 41°24' E 018°52'415.8
2017-Aug-16 23:00N 41°20' E 018°53'2115.6
2017-Aug-16 21:39N 40°59' E 018°59'216.1
2017-Aug-16 21:30N 40°57' E 019°00'816.2
2017-Aug-16 21:00N 40°49' E 019°02'916.3
2017-Aug-16 20:26N 40°40' E 019°04'1718.1
2017-Aug-16 19:31N 40°24' E 019°11'017.3
2017-Aug-16 19:30N 40°24' E 019°11'918.0
2017-Aug-16 19:00N 40°16' E 019°17'100 5.0
2017-Aug-15 22:55N 38°52' E 020°25'311 6.4
2017-Aug-13 22:07N 36°01' E 014°57'212.4
2017-Aug-13 21:56N 36°00' E 014°55'512.4
2017-Aug-13 21:30N 35°59' E 014°48'612.4
2017-Aug-13 21:00N 35°56' E 014°41'612.4
2017-Aug-13 20:30N 35°55' E 014°34'2 0.1
2017-Aug-13 01:56N 35°54' E 014°31'4 8.7
2017-Aug-13 01:30N 35°56' E 014°35'613.0
2017-Aug-13 01:00N 36°00' E 014°41'1216.2
2017-Aug-13 00:15N 36°08' E 014°52'8011.7
2017-Aug-12 17:22N 37°28' E 015°07'17 1.3
2017-Aug-12 03:51N 37°25' E 015°28'713.0
2017-Aug-12 03:21N 37°24' E 015°36'412.7
2017-Aug-12 03:00N 37°23' E 015°42'1314.1
2017-Aug-12 02:06N 37°21' E 015°57'215.2
2017-Aug-12 01:59N 37°20' E 015°60'1015.3
2017-Aug-12 01:20N 37°18' E 016°12'13816.1
2017-Aug-11 16:46N 36°51' E 019°02'415.7
2017-Aug-11 16:30N 36°50' E 019°07'1815.7
2017-Aug-11 15:23N 36°47' E 019°28'615.6
2017-Aug-11 15:01N 36°46' E 019°35'4016.1
2017-Aug-11 12:32N 36°38' E 020°24'016.1
2017-Aug-11 12:30N 36°38' E 020°24'815.9
2017-Aug-11 12:00N 36°36' E 020°34'261 6.4
2017-Aug-09 19:00N 37°24' E 025°55'611.4
2017-Aug-09 18:30N 37°27' E 025°49'911.7
2017-Aug-09 17:45N 37°29' E 025°38'311.6
2017-Aug-09 17:30N 37°30' E 025°35'611.7
2017-Aug-09 17:01N 37°32' E 025°28'711.3
2017-Aug-09 16:26N 37°32' E 025°20'4 8.7
2017-Aug-09 16:01N 37°29' E 025°17'3 4.5
2017-Aug-09 15:26N 37°27' E 025°19'0 0.2
2017-Aug-09 14:50N 37°27' E 025°19'0 0.3
2017-Aug-09 14:29N 37°27' E 025°19'0 0.1
2017-Aug-09 13:59N 37°27' E 025°19'0 0.2
2017-Aug-09 13:23N 37°28' E 025°19'0 0.9
2017-Aug-09 12:59N 37°28' E 025°19'0 0.0
2017-Aug-09 12:29N 37°27' E 025°19'0 0.1
2017-Aug-09 11:59N 37°28' E 025°19'0 0.1
2017-Aug-09 11:29N 37°28' E 025°19'0 0.1
2017-Aug-09 10:56N 37°28' E 025°19'0 0.1
2017-Aug-09 10:29N 37°28' E 025°19'0 0.0
2017-Aug-09 09:59N 37°28' E 025°19'0 0.0
2017-Aug-09 09:26N 37°28' E 025°19'0 0.0
2017-Aug-09 08:56N 37°28' E 025°19'0 0.0
2017-Aug-09 08:29N 37°28' E 025°19'0 0.0
2017-Aug-09 07:59N 37°28' E 025°19'0 0.0
2017-Aug-09 07:29N 37°28' E 025°19'0 0.0
2017-Aug-09 06:59N 37°28' E 025°19'0 0.0
2017-Aug-09 06:29N 37°28' E 025°19'0 0.0
2017-Aug-09 05:59N 37°28' E 025°19'0 0.0
2017-Aug-09 05:29N 37°28' E 025°19'0 0.0
2017-Aug-09 04:56N 37°28' E 025°19'0 0.1
2017-Aug-09 04:29N 37°28' E 025°19'0 0.2
2017-Aug-09 04:00N 37°28' E 025°19'1 2.8
2017-Aug-09 03:31N 37°27' E 025°18'611.4
2017-Aug-09 03:00N 37°29' E 025°11'613.0
2017-Aug-09 02:30N 37°31' E 025°03'713.2
2017-Aug-09 02:00N 37°33' E 024°55'5 9.2
2017-Aug-09 01:30N 37°33' E 024°49'40 7.9
2017-Aug-08 20:29N 37°33' E 023°59'5 9.0
2017-Aug-08 19:58N 37°35' E 023°54'4 8.5
2017-Aug-08 19:30N 37°36' E 023°49'4 8.3
2017-Aug-08 19:00N 37°38' E 023°44'4 8.5
2017-Aug-08 18:30N 37°41' E 023°41'4 8.5
2017-Aug-08 18:00N 37°45' E 023°39'4 8.8
2017-Aug-08 17:30N 37°49' E 023°37'4 8.5
2017-Aug-08 17:00N 37°53' E 023°37'3 6.6
2017-Aug-08 16:30N 37°57' E 023°38'0 0.3
2017-Aug-08 15:58N 37°56' E 023°38'0 0.0
2017-Aug-08 15:28N 37°56' E 023°38'0 0.0
2017-Aug-08 14:58N 37°56' E 023°38'0 0.0
2017-Aug-08 14:28N 37°56' E 023°38'0 0.0
2017-Aug-08 13:58N 37°56' E 023°38'0 0.0
2017-Aug-08 13:28N 37°56' E 023°38'0 0.0
2017-Aug-08 12:58N 37°56' E 023°38'0 0.0
2017-Aug-08 12:28N 37°56' E 023°38'0 0.0
2017-Aug-08 11:58N 37°56' E 023°38'0 0.0
2017-Aug-08 11:28N 37°56' E 023°38'0 0.0
2017-Aug-08 10:58N 37°56' E 023°38'0 0.0
2017-Aug-08 10:28N 37°56' E 023°38'0 0.0
2017-Aug-08 09:58N 37°56' E 023°38'0 0.0
2017-Aug-08 09:21N 37°56' E 023°38'0 0.0
2017-Aug-08 09:00N 37°56' E 023°38'0 0.0
2017-Aug-08 08:30N 37°56' E 023°38'0 0.0
2017-Aug-08 07:54N 37°56' E 023°38'0 0.0
2017-Aug-08 07:30N 37°56' E 023°38'0 0.0
2017-Aug-08 07:00N 37°56' E 023°38'0 0.0
2017-Aug-08 06:30N 37°56' E 023°38'0 0.0
2017-Aug-08 06:00N 37°56' E 023°38'0 0.0
2017-Aug-08 05:30N 37°56' E 023°38'0 0.0
2017-Aug-08 05:00N 37°56' E 023°38'0 0.0
2017-Aug-08 04:30N 37°56' E 023°38'0 0.0
2017-Aug-08 04:00N 37°56' E 023°38'0 0.0
2017-Aug-08 03:30N 37°56' E 023°38'0 0.0
2017-Aug-08 03:00N 37°56' E 023°38'0 0.0
2017-Aug-08 02:30N 37°56' E 023°38'0 0.0
2017-Aug-08 02:00N 37°56' E 023°38'1 2.9
2017-Aug-08 01:30N 37°56' E 023°37'510.0
2017-Aug-08 01:01N 37°51' E 023°39'612.4
2017-Aug-08 00:30N 37°46' E 023°42'612.9
2017-Aug-08 00:00N 37°40' E 023°46'612.0
2017-Aug-07 23:31N 37°34' E 023°46'713.3
2017-Aug-07 23:01N 37°27' E 023°44'613.0
2017-Aug-07 22:31N 37°21' E 023°43'816.2
2017-Aug-07 22:01N 37°13' E 023°40'10415.3
2017-Aug-07 15:14N 36°17' E 021°51'10218.8
2017-Aug-07 09:51N 36°12' E 019°45'718.5
2017-Aug-07 09:29N 36°11' E 019°37'918.2
2017-Aug-07 08:58N 36°10' E 019°25'918.3
2017-Aug-07 08:29N 36°09' E 019°14'918.4
2017-Aug-07 08:01N 36°09' E 019°03'1018.6
2017-Aug-07 07:27N 36°08' E 018°51'818.6
2017-Aug-07 07:00N 36°08' E 018°40'918.9
2017-Aug-07 06:30N 36°08' E 018°29'1019.1
2017-Aug-07 06:00N 36°08' E 018°17'1019.1
2017-Aug-07 05:30N 36°07' E 018°05'1019.1
2017-Aug-07 05:00N 36°06' E 017°53'2818.9
2017-Aug-07 03:30N 36°05' E 017°18'4018.8
2017-Aug-07 01:21N 36°03' E 016°28'718.3
2017-Aug-07 00:58N 36°02' E 016°19'817.9
2017-Aug-07 00:30N 36°02' E 016°09'918.1
2017-Aug-07 00:01N 36°01' E 015°58'1018.2
2017-Aug-06 23:29N 36°00' E 015°46'  
Track history (hours):
 
Tides and Currents Weather Stations Pressure Air Temp Water Temp Dewpoint Dewpoint Depression Visibility Wind Speed Wind Dir Waves Ship Positions

Celebrity Mercury

Last reported at 2017-Aug-16 23:16 UTC. Time now 2017-Aug-17 03:38 UTC.
Position N 41°24' E 018°52'.

Length 264 m; draft 8.5 m.

Type: Ship. MMSI: 249053000.

Date/timePositionNaut miles runAvg speedWind from/ knotsBaromVisibWave heightAir tempDewpointWater temp
2017-Aug-16 23:16N 41°24' E 018°52'415.8
2017-Aug-16 23:00N 41°20' E 018°53'2115.6
2017-Aug-16 21:39N 40°59' E 018°59'216.1
2017-Aug-16 21:30N 40°57' E 019°00'816.2
2017-Aug-16 21:00N 40°49' E 019°02'916.3
2017-Aug-16 20:26N 40°40' E 019°04'1718.1
2017-Aug-16 19:31N 40°24' E 019°11'017.3
2017-Aug-16 19:30N 40°24' E 019°11'918.0
2017-Aug-16 19:00N 40°16' E 019°17'100 5.0
2017-Aug-15 22:55N 38°52' E 020°25'311 6.4
2017-Aug-13 22:07N 36°01' E 014°57'212.4
2017-Aug-13 21:56N 36°00' E 014°55'512.4
2017-Aug-13 21:30N 35°59' E 014°48'612.4
2017-Aug-13 21:00N 35°56' E 014°41'612.4
2017-Aug-13 20:30N 35°55' E 014°34'2 0.1
2017-Aug-13 01:56N 35°54' E 014°31'4 8.7
2017-Aug-13 01:30N 35°56' E 014°35'613.0
2017-Aug-13 01:00N 36°00' E 014°41'1216.2
2017-Aug-13 00:15N 36°08' E 014°52'8011.7
2017-Aug-12 17:22N 37°28' E 015°07'17 1.3
2017-Aug-12 03:51N 37°25' E 015°28'713.0
2017-Aug-12 03:21N 37°24' E 015°36'412.7
2017-Aug-12 03:00N 37°23' E 015°42'1314.1
2017-Aug-12 02:06N 37°21' E 015°57'215.2
2017-Aug-12 01:59N 37°20' E 015°60'1015.3
2017-Aug-12 01:20N 37°18' E 016°12'13816.1
2017-Aug-11 16:46N 36°51' E 019°02'415.7
2017-Aug-11 16:30N 36°50' E 019°07'1815.7
2017-Aug-11 15:23N 36°47' E 019°28'615.6
2017-Aug-11 15:01N 36°46' E 019°35'4016.1
2017-Aug-11 12:32N 36°38' E 020°24'016.1
2017-Aug-11 12:30N 36°38' E 020°24'815.9
2017-Aug-11 12:00N 36°36' E 020°34'261 6.4
2017-Aug-09 19:00N 37°24' E 025°55'611.4
2017-Aug-09 18:30N 37°27' E 025°49'911.7
2017-Aug-09 17:45N 37°29' E 025°38'311.6
2017-Aug-09 17:30N 37°30' E 025°35'611.7
2017-Aug-09 17:01N 37°32' E 025°28'711.3
2017-Aug-09 16:26N 37°32' E 025°20'4 8.7
2017-Aug-09 16:01N 37°29' E 025°17'3 4.5
2017-Aug-09 15:26N 37°27' E 025°19'0 0.2
2017-Aug-09 14:50N 37°27' E 025°19'0 0.3
2017-Aug-09 14:29N 37°27' E 025°19'0 0.1
2017-Aug-09 13:59N 37°27' E 025°19'0 0.2
2017-Aug-09 13:23N 37°28' E 025°19'0 0.9
2017-Aug-09 12:59N 37°28' E 025°19'0 0.0
2017-Aug-09 12:29N 37°27' E 025°19'0 0.1
2017-Aug-09 11:59N 37°28' E 025°19'0 0.1
2017-Aug-09 11:29N 37°28' E 025°19'0 0.1
2017-Aug-09 10:56N 37°28' E 025°19'0 0.1
2017-Aug-09 10:29N 37°28' E 025°19'0 0.0
2017-Aug-09 09:59N 37°28' E 025°19'0 0.0
2017-Aug-09 09:26N 37°28' E 025°19'0 0.0
2017-Aug-09 08:56N 37°28' E 025°19'0 0.0
2017-Aug-09 08:29N 37°28' E 025°19'0 0.0
2017-Aug-09 07:59N 37°28' E 025°19'0 0.0
2017-Aug-09 07:29N 37°28' E 025°19'0 0.0
2017-Aug-09 06:59N 37°28' E 025°19'0 0.0
2017-Aug-09 06:29N 37°28' E 025°19'0 0.0
2017-Aug-09 05:59N 37°28' E 025°19'0 0.0
2017-Aug-09 05:29N 37°28' E 025°19'0 0.0
2017-Aug-09 04:56N 37°28' E 025°19'0 0.1
2017-Aug-09 04:29N 37°28' E 025°19'0 0.2
2017-Aug-09 04:00N 37°28' E 025°19'1 2.8
2017-Aug-09 03:31N 37°27' E 025°18'611.4
2017-Aug-09 03:00N 37°29' E 025°11'613.0
2017-Aug-09 02:30N 37°31' E 025°03'713.2
2017-Aug-09 02:00N 37°33' E 024°55'5 9.2
2017-Aug-09 01:30N 37°33' E 024°49'40 7.9
2017-Aug-08 20:29N 37°33' E 023°59'5 9.0
2017-Aug-08 19:58N 37°35' E 023°54'4 8.5
2017-Aug-08 19:30N 37°36' E 023°49'4 8.3
2017-Aug-08 19:00N 37°38' E 023°44'4 8.5
2017-Aug-08 18:30N 37°41' E 023°41'4 8.5
2017-Aug-08 18:00N 37°45' E 023°39'4 8.8
2017-Aug-08 17:30N 37°49' E 023°37'4 8.5
2017-Aug-08 17:00N 37°53' E 023°37'3 6.6
2017-Aug-08 16:30N 37°57' E 023°38'0 0.3
2017-Aug-08 15:58N 37°56' E 023°38'0 0.0
2017-Aug-08 15:28N 37°56' E 023°38'0 0.0
2017-Aug-08 14:58N 37°56' E 023°38'0 0.0
2017-Aug-08 14:28N 37°56' E 023°38'0 0.0
2017-Aug-08 13:58N 37°56' E 023°38'0 0.0
2017-Aug-08 13:28N 37°56' E 023°38'0 0.0
2017-Aug-08 12:58N 37°56' E 023°38'0 0.0
2017-Aug-08 12:28N 37°56' E 023°38'0 0.0
2017-Aug-08 11:58N 37°56' E 023°38'0 0.0
2017-Aug-08 11:28N 37°56' E 023°38'0 0.0
2017-Aug-08 10:58N 37°56' E 023°38'0 0.0
2017-Aug-08 10:28N 37°56' E 023°38'0 0.0
2017-Aug-08 09:58N 37°56' E 023°38'0 0.0
2017-Aug-08 09:21N 37°56' E 023°38'0 0.0
2017-Aug-08 09:00N 37°56' E 023°38'0 0.0
2017-Aug-08 08:30N 37°56' E 023°38'0 0.0
2017-Aug-08 07:54N 37°56' E 023°38'0 0.0
2017-Aug-08 07:30N 37°56' E 023°38'0 0.0
2017-Aug-08 07:00N 37°56' E 023°38'0 0.0
2017-Aug-08 06:30N 37°56' E 023°38'0 0.0
2017-Aug-08 06:00N 37°56' E 023°38'0 0.0
2017-Aug-08 05:30N 37°56' E 023°38'0 0.0
2017-Aug-08 05:00N 37°56' E 023°38'0 0.0
2017-Aug-08 04:30N 37°56' E 023°38'0 0.0
2017-Aug-08 04:00N 37°56' E 023°38'0 0.0
2017-Aug-08 03:30N 37°56' E 023°38'0 0.0
2017-Aug-08 03:00N 37°56' E 023°38'0 0.0
2017-Aug-08 02:30N 37°56' E 023°38'0 0.0
2017-Aug-08 02:00N 37°56' E 023°38'1 2.9
2017-Aug-08 01:30N 37°56' E 023°37'510.0
2017-Aug-08 01:01N 37°51' E 023°39'612.4
2017-Aug-08 00:30N 37°46' E 023°42'612.9
2017-Aug-08 00:00N 37°40' E 023°46'612.0
2017-Aug-07 23:31N 37°34' E 023°46'713.3
2017-Aug-07 23:01N 37°27' E 023°44'613.0
2017-Aug-07 22:31N 37°21' E 023°43'816.2
2017-Aug-07 22:01N 37°13' E 023°40'10415.3
2017-Aug-07 15:14N 36°17' E 021°51'10218.8
2017-Aug-07 09:51N 36°12' E 019°45'718.5
2017-Aug-07 09:29N 36°11' E 019°37'918.2
2017-Aug-07 08:58N 36°10' E 019°25'918.3
2017-Aug-07 08:29N 36°09' E 019°14'918.4
2017-Aug-07 08:01N 36°09' E 019°03'1018.6
2017-Aug-07 07:27N 36°08' E 018°51'818.6
2017-Aug-07 07:00N 36°08' E 018°40'918.9
2017-Aug-07 06:30N 36°08' E 018°29'1019.1
2017-Aug-07 06:00N 36°08' E 018°17'1019.1
2017-Aug-07 05:30N 36°07' E 018°05'1019.1
2017-Aug-07 05:00N 36°06' E 017°53'2818.9
2017-Aug-07 03:30N 36°05' E 017°18'4018.8
2017-Aug-07 01:21N 36°03' E 016°28'718.3
2017-Aug-07 00:58N 36°02' E 016°19'817.9
2017-Aug-07 00:30N 36°02' E 016°09'918.1
2017-Aug-07 00:01N 36°01' E 015°58'1018.2
2017-Aug-06 23:29N 36°00' E 015°46'  

Dump ship's entire track history